Time;durP1;ratioP1;P1;durP2;ratioP2;P2;SDS_P1;SDS_P2;PMS_P1;PMS_P2;Temp;Humidity;BMP_temperature;BMP_pressure;BME280_temperature;BME280_humidity;BME280_pressure;Samples;Min_cycle;Max_cycle;Signal;HPM_P1;HPM_P2
2022/09/11 00:00:02;;;;;;;;;;;;;;;23.75;58.59;99170.44;7315853;19;129302;-37
2022/09/11 00:02:27;;;;;;;;;;;;;;;23.72;58.14;99168.94;7315719;19;129507;-38
2022/09/11 00:04:54;;;;;;;;;;;;;;;23.70;58.54;99170.91;7315292;19;129404;-37
2022/09/11 00:07:19;;;;;;;;;;;;;;;23.72;58.91;99168.94;7314265;19;130412;-37
2022/09/11 00:09:45;;;;;;;;;;;;;;;23.74;58.09;99172.22;7312277;19;128859;-38
2022/09/11 00:12:11;;;;;;;;;;;;;;;23.71;58.13;99172.56;7311151;19;128956;-37
2022/09/11 00:14:36;;;;;;;;;;;;;;;23.70;59.03;99170.91;7314687;19;129409;-38
2022/09/11 00:17:02;;;;;;;;;;;;;;;23.72;58.50;99174.19;7314486;19;129876;-38
2022/09/11 00:19:27;;;;;;;;;;;;;;;23.62;58.81;99156.97;7311946;19;128883;-37
2022/09/11 00:21:55;;;;;;;;;;;;;;;23.68;58.63;99180.78;7312425;19;129504;-37
2022/09/11 00:24:21;;;;;;;;;;;;;;;23.58;58.25;99161.72;7314907;19;130131;-38
2022/09/11 00:26:46;;;;;;;;;;;;;;;23.67;58.24;99176.47;7313490;19;129389;-37
2022/09/11 00:29:11;;;;;;;;;;;;;;;23.70;58.27;99181.41;7311479;19;129473;-37
2022/09/11 00:31:37;;;;;;;;;;;;;;;23.71;59.01;99175.19;7311814;19;129541;-38
2022/09/11 00:34:02;;;;;;;;;;;;;;;23.66;58.20;99166.16;7315050;19;131440;-37
2022/09/11 00:36:34;;;;;;;;;;;;;;;23.69;58.08;99182.41;7313616;19;130596;-38
2022/09/11 00:39:00;;;;;;;;;;;;;;;23.65;58.85;99170.56;7313096;19;129018;-38
2022/09/11 00:41:35;;;;;;;;;;;;;;;23.72;58.34;99170.72;7315159;19;129850;-37
2022/09/11 00:44:05;;;;;;;;;;;;;;;23.65;57.86;99173.19;7313420;19;129169;-37
2022/09/11 00:46:36;;;;;;;;;;;;;;;23.67;58.42;99176.47;7314849;19;130328;-37
2022/09/11 00:49:04;;;;;;;;;;;;;;;23.69;57.91;99171.91;7312479;19;129852;-36
2022/09/11 00:51:32;;;;;;;;;;;;;;;23.70;57.94;99170.09;7311742;19;128866;-38
2022/09/11 00:53:58;;;;;;;;;;;;;;;23.68;58.11;99178.16;7313900;19;131044;-37
2022/09/11 00:56:26;;;;;;;;;;;;;;;23.70;58.47;99170.09;7312335;19;129382;-37
2022/09/11 00:58:53;;;;;;;;;;;;;;;23.67;57.42;99167.81;7311998;19;129017;-36
2022/09/11 01:01:18;;;;;;;;;;;;;;;23.64;58.05;99176.81;7313447;19;128949;-38
2022/09/11 01:03:44;;;;;;;;;;;;;;;23.63;58.47;99162.06;7310830;19;129650;-37
2022/09/11 01:06:09;;;;;;;;;;;;;;;23.65;58.34;99160.06;7312980;19;130864;-37
2022/09/11 01:08:34;;;;;;;;;;;;;;;23.66;57.85;99164.34;7312880;19;130753;-37
2022/09/11 01:11:02;;;;;;;;;;;;;;;23.63;57.71;99159.44;7313187;19;129421;-37
2022/09/11 01:13:49;;;;;;;;;;;;;;;23.62;58.35;99164.84;7312114;19;129626;-37
2022/09/11 01:16:20;;;;;;;;;;;;;;;23.64;58.26;99157.63;7313240;19;129238;-37
2022/09/11 01:18:48;;;;;;;;;;;;;;;23.65;57.87;99157.44;7312425;19;129166;-37
2022/09/11 01:21:53;;;;;;;;;;;;;;;23.56;57.94;99142.69;7313170;19;129314;-37
2022/09/11 01:24:28;;;;;;;;;;;;;;;23.65;58.50;99165.31;7307913;19;129550;-37
2022/09/11 01:27:16;;;;;;;;;;;;;;;23.63;58.56;99169.94;7309530;19;130354;-37
2022/09/11 01:29:49;;;;;;;;;;;;;;;23.66;58.26;99159.09;7305077;19;129811;-37
2022/09/11 01:32:19;;;;;;;;;;;;;;;23.64;57.42;99155.81;7309407;19;129057;-37
2022/09/11 01:34:51;;;;;;;;;;;;;;;23.63;57.65;99159.44;7311236;19;129839;-37
2022/09/11 01:37:23;;;;;;;;;;;;;;;23.62;57.99;99159.59;7311689;19;130236;-37
2022/09/11 01:39:52;;;;;;;;;;;;;;;23.57;57.99;99151.41;7316624;19;129255;-38
2022/09/11 01:42:21;;;;;;;;;;;;;;;23.55;57.96;99153.34;7317506;19;129218;-37
2022/09/11 01:44:51;;;;;;;;;;;;;;;23.62;57.99;99165.66;7319458;19;130313;-37
2022/09/11 01:47:18;;;;;;;;;;;;;;;23.54;57.88;99155.16;7319904;19;130491;-37
2022/09/11 01:50:08;;;;;;;;;;;;;;;23.61;58.29;99161.41;7317509;19;128856;-37
2022/09/11 01:52:40;;;;;;;;;;;;;;;23.60;57.66;99164.19;7319687;19;129041;-38
2022/09/11 01:55:12;;;;;;;;;;;;;;;23.65;57.72;99164.53;7319027;19;129506;-37
2022/09/11 01:57:56;;;;;;;;;;;;;;;23.61;58.54;99156.16;7318026;19;130083;-37
2022/09/11 02:00:21;;;;;;;;;;;;;;;23.63;57.95;99154.19;7319290;19;130068;-37
2022/09/11 02:02:52;;;;;;;;;;;;;;;23.72;57.70;99163.69;7319365;19;129136;-37
2022/09/11 02:05:22;;;;;;;;;;;;;;;23.75;58.18;99163.34;7320377;19;129556;-37
2022/09/11 02:07:53;;;;;;;;;;;;;;;23.76;58.21;99165.03;7319091;19;130378;-37
2022/09/11 02:10:24;;;;;;;;;;;;;;;23.76;57.79;99165.03;7319649;19;129259;-37
2022/09/11 02:12:55;;;;;;;;;;;;;;;23.77;58.28;99163.19;7318724;19;129570;-37
2022/09/11 02:15:23;;;;;;;;;;;;;;;23.78;57.68;99167.47;7318034;19;129088;-37
2022/09/11 02:17:52;;;;;;;;;;;;;;;23.77;57.80;99164.03;7318169;19;129322;-36
2022/09/11 02:20:19;;;;;;;;;;;;;;;23.77;57.49;99166.66;7319547;19;128843;-37
2022/09/11 02:22:45;;;;;;;;;;;;;;;23.75;58.49;99168.59;7317820;19;129525;-37
2022/09/11 02:25:12;;;;;;;;;;;;;;;23.78;58.07;99165.69;7319604;19;129170;-37
2022/09/11 02:27:38;;;;;;;;;;;;;;;23.76;57.65;99170.28;7318243;19;130068;-37
2022/09/11 02:30:03;;;;;;;;;;;;;;;23.76;58.45;99170.28;7317254;19;130080;-37
2022/09/11 02:32:30;;;;;;;;;;;;;;;23.78;58.11;99168.31;7315849;19;130812;-37
2022/09/11 02:34:55;;;;;;;;;;;;;;;23.77;57.65;99166.66;7315256;19;130798;-38
2022/09/11 02:37:23;;;;;;;;;;;;;;;23.80;58.27;99170.75;7318400;19;130887;-38
2022/09/11 02:40:03;;;;;;;;;;;;;;;23.79;57.95;99169.09;7315195;19;131315;-37
2022/09/11 02:42:49;;;;;;;;;;;;;;;23.78;58.65;99168.31;7316146;19;129296;-37
2022/09/11 02:45:14;;;;;;;;;;;;;;;23.78;57.84;99168.31;7315900;19;130188;-37
2022/09/11 02:47:42;;;;;;;;;;;;;;;23.79;57.74;99163.84;7316562;19;129562;-37
2022/09/11 02:50:25;;;;;;;;;;;;;;;23.70;58.11;99147.28;7315301;19;129136;-37
2022/09/11 02:53:01;;;;;;;;;;;;;;;23.79;57.83;99162.06;7315369;19;129148;-38
2022/09/11 02:55:26;;;;;;;;;;;;;;;23.79;57.62;99159.44;7317168;19;129617;-37
2022/09/11 02:58:03;;;;;;;;;;;;;;;23.80;57.97;99165.50;7315858;19;129783;-37
2022/09/11 03:00:28;;;;;;;;;;;;;;;23.79;58.50;99159.44;7317326;19;129605;-37
2022/09/11 03:02:53;;;;;;;;;;;;;;;23.79;57.50;99169.09;7316618;19;129307;-37
2022/09/11 03:05:19;;;;;;;;;;;;;;;23.76;58.55;99166.81;7317409;19;129418;-37
2022/09/11 03:07:45;;;;;;;;;;;;;;;23.78;57.76;99170.94;7317452;19;130141;-37
2022/09/11 03:10:10;;;;;;;;;;;;;;;23.80;57.98;99170.75;7315611;19;128882;-37
2022/09/11 03:12:36;;;;;;;;;;;;;;;23.78;57.94;99173.56;7312151;19;131433;-36
2022/09/11 03:15:01;;;;;;;;;;;;;;;23.81;58.18;99172.41;7316111;19;128972;-37
2022/09/11 03:17:27;;;;;;;;;;;;;;;23.76;57.79;99175.53;7315968;19;130280;-37
2022/09/11 03:19:52;;;;;;;;;;;;;;;23.79;57.80;99174.34;7315115;19;129867;-37
2022/09/11 03:22:17;;;;;;;;;;;;;;;23.68;57.65;99157.16;7316005;19;128921;-37
2022/09/11 03:24:43;;;;;;;;;;;;;;;23.77;57.80;99171.91;7316685;19;129502;-37
2022/09/11 03:27:08;;;;;;;;;;;;;;;23.77;57.58;99171.91;7313991;19;130039;-37
2022/09/11 03:29:33;;;;;;;;;;;;;;;23.78;57.74;99175.34;7314737;19;131816;-37
2022/09/11 03:32:00;;;;;;;;;;;;;;;23.78;57.93;99177.97;7313864;19;131249;-38
2022/09/11 03:34:25;;;;;;;;;;;;;;;23.77;57.74;99177.16;7316768;19;129634;-37
2022/09/11 03:36:50;;;;;;;;;;;;;;;23.79;57.60;99174.34;7316796;19;130354;-37
2022/09/11 03:39:16;;;;;;;;;;;;;;;23.69;57.87;99164.03;7314062;19;129489;-37
2022/09/11 03:41:41;;;;;;;;;;;;;;;23.76;58.38;99175.53;7315472;19;128931;-38
2022/09/11 03:44:07;;;;;;;;;;;;;;;23.78;58.06;99173.56;7316002;19;129662;-37
2022/09/11 03:46:32;;;;;;;;;;;;;;;23.76;57.50;99175.53;7315859;19;130138;-37
2022/09/11 03:48:58;;;;;;;;;;;;;;;23.66;58.36;99163.53;7314824;19;128969;-37
2022/09/11 03:51:25;;;;;;;;;;;;;;;23.78;57.97;99183.22;7313106;19;130291;-38
2022/09/11 03:53:50;;;;;;;;;;;;;;;23.77;57.88;99198.16;7313930;19;130103;-37
2022/09/11 03:56:16;;;;;;;;;;;;;;;23.77;58.01;99187.66;7314968;19;130293;-37
2022/09/11 03:58:42;;;;;;;;;;;;;;;23.78;57.89;99198.97;7315167;19;129163;-37
2022/09/11 04:01:11;;;;;;;;;;;;;;;23.77;57.82;99192.91;7316292;19;129120;-37
2022/09/11 04:03:37;;;;;;;;;;;;;;;23.78;58.23;99197.19;7315004;19;130113;-37
2022/09/11 04:06:02;;;;;;;;;;;;;;;23.77;57.75;99187.66;7313755;19;130280;-37
2022/09/11 04:08:32;;;;;;;;;;;;;;;23.77;57.98;99198.16;7313951;19;129117;-37
2022/09/11 04:10:58;;;;;;;;;;;;;;;23.76;57.36;99201.78;7314063;19;129022;-37
2022/09/11 04:13:28;;;;;;;;;;;;;;;23.76;57.49;99199.16;7311624;19;129724;-37
2022/09/11 04:15:56;;;;;;;;;;;;;;;23.73;57.25;99202.09;7315411;19;130621;-37
2022/09/11 04:18:21;;;;;;;;;;;;;;;23.75;57.44;99207.97;7314908;19;130710;-36
2022/09/11 04:20:47;;;;;;;;;;;;;;;23.75;57.90;99200.09;7315922;19;130243;-38
2022/09/11 04:23:13;;;;;;;;;;;;;;;23.73;57.78;99207.34;7312913;19;130058;-38
2022/09/11 04:25:38;;;;;;;;;;;;;;;23.65;57.58;99190.75;7315364;19;130355;-37
2022/09/11 04:28:03;;;;;;;;;;;;;;;23.76;57.79;99207.03;7314484;19;129029;-38
2022/09/11 04:30:29;;;;;;;;;;;;;;;23.75;57.62;99204.56;7315077;19;131400;-38
2022/09/11 04:32:54;;;;;;;;;;;;;;;23.74;58.17;99213.41;7311604;19;130811;-37
2022/09/11 04:35:19;;;;;;;;;;;;;;;23.75;57.58;99221.09;7313142;19;129076;-37
2022/09/11 04:37:44;;;;;;;;;;;;;;;23.73;57.75;99215.22;7313040;19;129560;-38
2022/09/11 04:40:10;;;;;;;;;;;;;;;23.75;57.41;99221.09;7314383;19;130231;-35
2022/09/11 04:42:35;;;;;;;;;;;;;;;23.74;57.83;99213.41;7312906;19;130493;-37
2022/09/11 04:45:00;;;;;;;;;;;;;;;23.74;57.93;99216.03;7313748;19;129129;-38
2022/09/11 04:47:27;;;;;;;;;;;;;;;23.75;57.83;99218.47;7314244;19;128928;-38
2022/09/11 04:49:52;;;;;;;;;;;;;;;23.65;58.31;99198.63;7312585;19;129756;-38
2022/09/11 04:52:18;;;;;;;;;;;;;;;23.74;57.70;99216.84;7311653;19;130592;-35
2022/09/11 04:54:45;;;;;;;;;;;;;;;23.73;57.92;99212.59;7314021;19;131031;-38
2022/09/11 04:57:10;;;;;;;;;;;;;;;23.71;57.20;99208.47;7315087;19;130044;-38
2022/09/11 04:59:35;;;;;;;;;;;;;;;23.74;58.10;99219.47;7312591;19;128946;-37
2022/09/11 05:02:00;;;;;;;;;;;;;;;23.72;57.45;99216.19;7313084;19;130196;-36
2022/09/11 05:04:25;;;;;;;;;;;;;;;23.74;58.26;99221.28;7314854;19;129677;-38
2022/09/11 05:06:51;;;;;;;;;;;;;;;23.73;57.53;99219.66;7314221;19;129000;-37
2022/09/11 05:09:16;;;;;;;;;;;;;;;23.73;57.70;99223.09;7313112;19;129479;-37
2022/09/11 05:11:42;;;;;;;;;;;;;;;23.74;57.75;99219.47;7312392;19;129198;-37
2022/09/11 05:14:07;;;;;;;;;;;;;;;23.70;58.12;99217.34;7313350;19;129604;-37
2022/09/11 05:16:33;;;;;;;;;;;;;;;23.74;57.45;99229.97;7313214;19;128826;-37
2022/09/11 05:18:59;;;;;;;;;;;;;;;23.73;57.67;99228.34;7311672;19;129200;-37
2022/09/11 05:21:24;;;;;;;;;;;;;;;23.71;58.00;99235.56;7312897;19;130032;-37
2022/09/11 05:23:51;;;;;;;;;;;;;;;23.74;57.26;99235.22;7312621;19;129746;-37
2022/09/11 05:26:18;;;;;;;;;;;;;;;23.73;58.09;99232.78;7315220;19;129311;-37
2022/09/11 05:28:43;;;;;;;;;;;;;;;23.75;57.87;99236.84;7312633;19;128927;-37
2022/09/11 05:31:10;;;;;;;;;;;;;;;23.74;57.34;99245.72;7311592;19;130242;-36
2022/09/11 05:33:35;;;;;;;;;;;;;;;23.72;58.05;99247.69;7312007;19;130190;-37
2022/09/11 05:36:02;;;;;;;;;;;;;;;23.71;58.13;99245.22;7312196;19;128852;-36
2022/09/11 05:38:28;;;;;;;;;;;;;;;23.72;57.31;99252.94;7310774;19;129316;-37
2022/09/11 05:40:54;;;;;;;;;;;;;;;23.72;57.65;99258.19;7312554;19;129359;-37
2022/09/11 05:43:19;;;;;;;;;;;;;;;23.73;57.43;99259.84;7310052;19;129757;-38
2022/09/11 05:45:52;;;;;;;;;;;;;;;23.74;58.07;99261.47;7309941;19;129332;-38
2022/09/11 05:48:18;;;;;;;;;;;;;;;23.66;57.77;99253.59;7311760;19;128816;-38
2022/09/11 05:50:50;;;;;;;;;;;;;;;23.68;57.67;99262.13;7312033;19;130452;-38
2022/09/11 05:53:16;;;;;;;;;;;;;;;23.71;57.69;99269.69;7309705;19;130123;-37
2022/09/11 05:55:41;;;;;;;;;;;;;;;23.68;57.68;99282.31;7312081;19;128986;-37
2022/09/11 05:58:06;;;;;;;;;;;;;;;23.72;57.43;99283.59;7308527;19;130001;-37
2022/09/11 06:00:31;;;;;;;;;;;;;;;23.71;57.48;99288.06;7310762;19;129547;-37
2022/09/11 06:02:57;;;;;;;;;;;;;;;23.70;57.95;99281.16;7308081;19;129811;-38
2022/09/11 06:05:23;;;;;;;;;;;;;;;23.71;58.04;99292.47;7310657;19;129827;-37
2022/09/11 06:07:49;;;;;;;;;;;;;;;23.70;57.00;99296.88;7309696;19;130742;-37
2022/09/11 06:10:15;;;;;;;;;;;;;;;23.70;57.41;99291.63;7309755;19;130208;-37
2022/09/11 06:12:41;;;;;;;;;;;;;;;23.69;57.45;99300.50;7307710;19;130873;-37
2022/09/11 06:15:06;;;;;;;;;;;;;;;23.69;57.45;99291.81;7308005;19;130079;-37
2022/09/11 06:17:31;;;;;;;;;;;;;;;23.72;57.77;99305.44;7310086;19;129046;-38
2022/09/11 06:19:57;;;;;;;;;;;;;;;23.71;57.86;99295.09;7305847;19;129517;-37
2022/09/11 06:22:22;;;;;;;;;;;;;;;23.74;57.88;99297.41;7309446;19;129594;-37
2022/09/11 06:24:48;;;;;;;;;;;;;;;23.73;58.21;99307.09;7310581;19;129443;-37
2022/09/11 06:27:14;;;;;;;;;;;;;;;23.74;57.80;99313.16;7315828;19;129995;-37
2022/09/11 06:29:39;;;;;;;;;;;;;;;23.73;57.89;99312.34;7312616;19;129500;-37
2022/09/11 06:32:05;;;;;;;;;;;;;;;23.67;57.69;99301.66;7312636;19;130435;-38
2022/09/11 06:34:30;;;;;;;;;;;;;;;23.72;57.62;99315.09;7315825;19;130141;-36
2022/09/11 06:36:56;;;;;;;;;;;;;;;23.69;58.09;99311.00;7317855;19;130523;-38
2022/09/11 06:39:25;;;;;;;;;;;;;;;23.69;57.78;99316.25;7314799;19;129125;-36
2022/09/11 06:41:52;;;;;;;;;;;;;;;23.70;57.70;99320.50;7316007;19;129723;-38
2022/09/11 06:44:18;;;;;;;;;;;;;;;23.74;58.61;99324.47;7308304;19;129510;-37
2022/09/11 06:46:44;;;;;;;;;;;;;;;23.71;58.21;99323.97;7307536;19;129434;-38
2022/09/11 06:49:10;;;;;;;;;;;;;;;23.68;57.70;99330.38;7314531;19;130433;-38
2022/09/11 06:51:35;;;;;;;;;;;;;;;23.72;57.95;99326.44;7315202;19;129854;-38
2022/09/11 06:54:01;;;;;;;;;;;;;;;23.74;57.94;99329.72;7317212;19;129429;-38
2022/09/11 06:56:27;;;;;;;;;;;;;;;23.75;57.83;99327.94;7311497;19;130663;-38
2022/09/11 06:58:53;;;;;;;;;;;;;;;23.75;57.69;99326.09;7315435;19;130010;-37
2022/09/11 07:01:19;;;;;;;;;;;;;;;23.64;58.32;99310.66;7312698;19;129678;-38
2022/09/11 07:03:45;;;;;;;;;;;;;;;23.74;57.71;99324.47;7315941;19;129741;-37
2022/09/11 07:06:14;;;;;;;;;;;;;;;23.74;58.70;99328.91;7314816;19;129985;-37
2022/09/11 07:08:39;;;;;;;;;;;;;;;23.73;58.03;99325.47;7315172;19;133060;-37
2022/09/11 07:11:07;;;;;;;;;;;;;;;23.74;58.04;99324.47;7316640;19;130118;-37
2022/09/11 07:13:33;;;;;;;;;;;;;;;23.73;57.87;99333.34;7314249;19;130101;-37
2022/09/11 07:16:02;;;;;;;;;;;;;;;23.69;58.24;99329.38;7314844;19;130176;-37
2022/09/11 07:18:31;;;;;;;;;;;;;;;23.71;58.06;99340.56;7315894;19;131343;-37
2022/09/11 07:20:56;;;;;;;;;;;;;;;23.72;58.19;99339.56;7312306;19;129645;-37
2022/09/11 07:23:21;;;;;;;;;;;;;;;23.73;57.93;99346.47;7315768;19;128957;-37
2022/09/11 07:25:48;;;;;;;;;;;;;;;23.73;58.66;99333.34;7315882;19;128998;-37
2022/09/11 07:28:13;;;;;;;;;;;;;;;23.74;58.23;99350.72;7309810;19;131005;-37
2022/09/11 07:30:39;;;;;;;;;;;;;;;23.70;57.91;99338.88;7312205;19;130305;-37
2022/09/11 07:33:04;;;;;;;;;;;;;;;23.72;58.78;99347.44;7309534;19;131630;-38
2022/09/11 07:35:29;;;;;;;;;;;;;;;23.68;58.64;99346.13;7311145;19;129325;-37
2022/09/11 07:37:55;;;;;;;;;;;;;;;23.72;58.58;99334.31;7316248;19;129589;-37
2022/09/11 07:40:20;;;;;;;;;;;;;;;23.72;58.26;99341.34;7313169;19;129830;-38
2022/09/11 07:42:45;;;;;;;;;;;;;;;23.67;58.32;99344.47;7313599;19;129845;-37
2022/09/11 07:45:10;;;;;;;;;;;;;;;23.62;58.38;99325.75;7316750;19;129923;-37
2022/09/11 07:47:37;;;;;;;;;;;;;;;23.69;58.50;99334.63;7312932;19;129288;-37
2022/09/11 07:50:03;;;;;;;;;;;;;;;23.70;58.04;99333.63;7310840;19;130228;-38
2022/09/11 07:52:28;;;;;;;;;;;;;;;23.65;57.80;99346.41;7313114;19;130668;-37
2022/09/11 07:54:53;;;;;;;;;;;;;;;23.66;58.16;99340.22;7312880;19;129220;-37
2022/09/11 07:57:20;;;;;;;;;;;;;;;23.68;58.33;99343.50;7312351;19;129776;-37
2022/09/11 07:59:46;;;;;;;;;;;;;;;23.56;58.21;99325.56;7312234;19;129200;-37
2022/09/11 08:02:11;;;;;;;;;;;;;;;23.63;58.25;99348.41;7312080;19;129158;-38
2022/09/11 08:04:36;;;;;;;;;;;;;;;23.63;58.75;99352.81;7311566;19;129352;-37
2022/09/11 08:07:01;;;;;;;;;;;;;;;23.63;58.32;99347.56;7313955;19;129297;-37
2022/09/11 08:09:27;;;;;;;;;;;;;;;23.61;58.96;99349.53;7311620;19;129983;-37
2022/09/11 08:11:54;;;;;;;;;;;;;;;23.60;58.17;99358.38;7313853;19;129267;-37
2022/09/11 08:14:21;;;;;;;;;;;;;;;23.59;58.20;99357.56;7312307;19;128843;-37
2022/09/11 08:16:47;;;;;;;;;;;;;;;23.60;58.42;99369.69;7310903;19;129681;-37
2022/09/11 08:19:17;;;;;;;;;;;;;;;23.63;58.49;99369.41;7312678;19;129898;-37
2022/09/11 08:21:42;;;;;;;;;;;;;;;23.63;58.68;99379.91;7313355;19;128961;-37
2022/09/11 08:24:08;;;;;;;;;;;;;;;23.60;58.64;99374.94;7313459;19;129010;-37
2022/09/11 08:26:35;;;;;;;;;;;;;;;23.54;58.25;99366.88;7314799;19;130098;-37
2022/09/11 08:29:00;;;;;;;;;;;;;;;23.62;58.30;99383.47;7309059;19;129946;-37
2022/09/11 08:31:26;;;;;;;;;;;;;;;23.64;58.75;99388.56;7312238;19;129214;-37
2022/09/11 08:33:52;;;;;;;;;;;;;;;23.53;58.92;99379.19;7314052;19;128875;-37
2022/09/11 08:36:17;;;;;;;;;;;;;;;23.60;58.26;99389.88;7311514;19;129498;-37
2022/09/11 08:38:43;;;;;;;;;;;;;;;23.63;58.80;99406.16;7313407;19;130576;-37
2022/09/11 08:41:18;;;;;;;;;;;;;;;23.61;58.31;99396.78;7312427;19;130338;-37
2022/09/11 08:43:49;;;;;;;;;;;;;;;23.61;58.87;99402.03;7314221;19;129568;-37
2022/09/11 08:46:15;;;;;;;;;;;;;;;23.60;58.87;99397.75;7314412;19;130855;-36
2022/09/11 08:48:44;;;;;;;;;;;;;;;23.60;58.73;99401.19;7309088;19;129357;-38
2022/09/11 08:51:13;;;;;;;;;;;;;;;23.59;59.15;99407.44;7313966;19;129284;-37
2022/09/11 08:53:38;;;;;;;;;;;;;;;23.59;58.59;99415.28;7310835;19;128914;-38
2022/09/11 08:56:08;;;;;;;;;;;;;;;23.58;58.83;99418.91;7310224;19;130474;-37
2022/09/11 08:58:49;;;;;;;;;;;;;;;23.59;58.84;99407.44;7313371;19;129978;-37
2022/09/11 09:01:25;;;;;;;;;;;;;;;23.59;58.58;99420.53;7313394;19;128923;-37
2022/09/11 09:03:57;;;;;;;;;;;;;;;23.60;59.07;99416.13;7310030;19;129884;-37
2022/09/11 09:06:25;;;;;;;;;;;;;;;23.57;58.79;99412.00;7311970;19;129164;-37
2022/09/11 09:08:57;;;;;;;;;;;;;;;23.54;58.60;99421.97;7308875;19;146171;-37
2022/09/11 09:11:30;;;;;;;;;;;;;;;23.63;58.38;99414.03;7312209;19;130295;-38
2022/09/11 09:14:14;;;;;;;;;;;;;;;23.59;58.28;99425.78;7311083;19;129358;-37
2022/09/11 09:16:40;;;;;;;;;;;;;;;23.60;58.82;99421.38;7313030;19;130077;-38
2022/09/11 09:19:19;;;;;;;;;;;;;;;23.56;58.50;99431.38;7304281;19;130631;-37
2022/09/11 09:21:54;;;;;;;;;;;;;;;23.58;58.47;99432.03;7311364;19;130611;-38
2022/09/11 09:24:20;;;;;;;;;;;;;;;23.61;58.96;99423.84;7306111;19;130092;-38
2022/09/11 09:26:48;;;;;;;;;;;;;;;23.59;58.50;99433.66;7307842;19;129966;-38
2022/09/11 09:29:24;;;;;;;;;;;;;;;23.52;58.71;99437.09;7307344;19;130517;-38
2022/09/11 09:32:07;;;;;;;;;;;;;;;23.53;58.46;99436.94;7304205;19;130503;-36
2022/09/11 09:34:34;;;;;;;;;;;;;;;23.53;59.30;99436.94;7309914;19;129323;-38
2022/09/11 09:37:14;;;;;;;;;;;;;;;23.53;58.82;99439.56;7307135;19;129459;-37
2022/09/11 09:39:39;;;;;;;;;;;;;;;23.44;59.14;99422.09;7301381;19;132543;-37
2022/09/11 09:42:09;;;;;;;;;;;;;;;23.56;58.91;99441.03;7307703;19;130056;-38
2022/09/11 09:44:45;;;;;;;;;;;;;;;23.56;59.02;99439.25;7308288;19;129258;-37
2022/09/11 09:47:12;;;;;;;;;;;;;;;23.58;59.01;99442.53;7304767;19;130948;-37
2022/09/11 09:49:37;;;;;;;;;;;;;;;23.57;58.86;99443.50;7309064;19;130939;-37
2022/09/11 09:52:29;;;;;;;;;;;;;;;23.50;59.32;99432.00;7307288;19;130167;-38
2022/09/11 09:55:11;;;;;;;;;;;;;;;23.56;58.73;99456.78;7306796;19;130192;-37
2022/09/11 09:57:38;;;;;;;;;;;;;;;23.53;58.90;99457.91;7307528;19;130105;-37
2022/09/11 10:00:10;;;;;;;;;;;;;;;23.52;59.31;99456.25;7309501;19;131417;-37
2022/09/11 10:02:40;;;;;;;;;;;;;;;23.48;59.08;99433.13;7317826;19;128965;-37
2022/09/11 10:05:16;;;;;;;;;;;;;;;23.56;58.65;99462.03;7317598;19;129065;-37
2022/09/11 10:07:49;;;;;;;;;;;;;;;23.41;58.58;99443.41;7318008;19;130344;-38
2022/09/11 10:10:26;;;;;;;;;;;;;;;23.50;58.97;99468.75;7313460;19;131485;-37
2022/09/11 10:12:53;;;;;;;;;;;;;;;23.51;58.87;99466.91;7316268;19;129092;-37
2022/09/11 10:15:20;;;;;;;;;;;;;;;23.49;59.17;99474.94;7317537;19;128993;-37
2022/09/11 10:17:46;;;;;;;;;;;;;;;23.50;59.06;99476.59;7315568;19;130309;-37
2022/09/11 10:20:18;;;;;;;;;;;;;;;23.52;59.15;99477.25;7314919;19;131381;-36
2022/09/11 10:22:43;;;;;;;;;;;;;;;23.57;58.61;99484.69;7314853;19;129538;-37
2022/09/11 10:25:10;;;;;;;;;;;;;;;23.54;58.99;99483.16;7311300;19;130758;-38
2022/09/11 10:28:01;;;;;;;;;;;;;;;23.51;58.78;99485.28;7309457;19;129678;-37
2022/09/11 10:30:31;;;;;;;;;;;;;;;23.47;59.12;99484.75;7309920;19;130706;-36
2022/09/11 10:32:57;;;;;;;;;;;;;;;23.49;59.43;99481.97;7315463;19;129358;-36
2022/09/11 10:35:25;;;;;;;;;;;;;;;23.42;59.14;99494.09;7312760;19;129647;-36
2022/09/11 10:38:05;;;;;;;;;;;;;;;23.49;59.29;99497.72;7302493;19;130541;-36
2022/09/11 10:40:30;;;;;;;;;;;;;;;23.48;58.90;99498.72;7299766;19;130067;-36
2022/09/11 10:42:55;;;;;;;;;;;;;;;23.43;59.95;99488.69;7299831;19;130086;-36
2022/09/11 10:45:21;;;;;;;;;;;;;;;23.46;59.78;99498.88;7301247;19;131946;-37
2022/09/11 10:47:47;;;;;;;;;;;;;;;23.40;59.82;99502.13;7300871;19;130666;-36
2022/09/11 10:50:15;;;;;;;;;;;;;;;23.34;60.12;99504.53;7307386;19;130580;-35
2022/09/11 10:52:59;;;;;;;;;;;;;;;23.40;59.04;99504.75;7314695;19;129169;-36
2022/09/11 10:55:36;;;;;;;;;;;;;;;23.59;58.83;99508.94;7311526;19;130058;-36
2022/09/11 10:58:06;;;;;;;;;;;;;;;23.63;59.58;99513.75;7314879;19;130972;-36
2022/09/11 11:00:32;;;;;;;;;;;;;;;23.67;59.44;99517.69;7314432;19;130361;-36
2022/09/11 11:03:04;;;;;;;;;;;;;;;23.72;58.90;99525.09;7313646;19;129326;-36
2022/09/11 11:05:55;;;;;;;;;;;;;;;23.76;58.81;99511.53;7314449;19;129761;-36
2022/09/11 11:08:26;;;;;;;;;;;;;;;23.80;58.67;99528.59;7307054;19;129242;-37
2022/09/11 11:10:51;;;;;;;;;;;;;;;23.83;59.38;99523.03;7311378;19;130429;-37
2022/09/11 11:13:22;;;;;;;;;;;;;;;23.83;59.35;99523.03;7306787;19;129218;-36
2022/09/11 11:15:56;;;;;;;;;;;;;;;23.83;59.98;99530.13;7309403;19;129890;-37
2022/09/11 11:18:27;;;;;;;;;;;;;;;23.82;59.51;99537.16;7307261;19;131080;-36
2022/09/11 11:20:55;;;;;;;;;;;;;;;23.80;59.79;99533.06;7306476;19;131911;-36
2022/09/11 11:23:39;;;;;;;;;;;;;;;23.80;59.75;99538.31;7316463;19;130556;-35
2022/09/11 11:26:13;;;;;;;;;;;;;;;23.76;59.28;99542.19;7310277;19;130817;-36
2022/09/11 11:28:41;;;;;;;;;;;;;;;23.73;58.77;99543.34;7307353;19;130513;-36
2022/09/11 11:31:09;;;;;;;;;;;;;;;23.76;59.35;99543.03;7311725;19;129350;-36
2022/09/11 11:33:34;;;;;;;;;;;;;;;23.78;59.15;99546.34;7306983;19;130095;-34
2022/09/11 11:36:06;;;;;;;;;;;;;;;23.76;59.07;99548.28;7309714;19;129198;-36
2022/09/11 11:38:32;;;;;;;;;;;;;;;23.76;59.44;99548.28;7308092;19;129992;-36
2022/09/11 11:41:04;;;;;;;;;;;;;;;23.80;59.27;99554.84;7307434;19;132139;-36
2022/09/11 11:43:31;;;;;;;;;;;;;;;23.81;59.12;99555.69;7312231;19;130348;-36
2022/09/11 11:46:00;;;;;;;;;;;;;;;23.77;59.17;99555.16;7309639;19;129989;-38
2022/09/11 11:48:43;;;;;;;;;;;;;;;23.67;59.31;99559.69;7312583;19;131090;-37
2022/09/11 11:51:20;;;;;;;;;;;;;;;23.77;59.31;99559.59;7311696;19;129595;-36
2022/09/11 11:54:05;;;;;;;;;;;;;;;23.78;58.74;99567.34;7301460;19;130298;-37
2022/09/11 11:56:37;;;;;;;;;;;;;;;23.76;58.87;99564.03;7306148;19;129573;-39
2022/09/11 11:59:29;;;;;;;;;;;;;;;23.74;58.10;99566.00;7304204;19;130330;-37
2022/09/11 12:01:58;;;;;;;;;;;;;;;23.72;59.07;99570.56;7306153;19;129611;-37
2022/09/11 12:04:24;;;;;;;;;;;;;;;23.69;58.90;99570.88;7310630;19;130311;-37
2022/09/11 12:06:49;;;;;;;;;;;;;;;23.68;58.48;99566.63;7309132;19;131452;-37
2022/09/11 12:09:15;;;;;;;;;;;;;;;23.74;58.03;99575.66;7313195;19;130031;-37
2022/09/11 12:11:42;;;;;;;;;;;;;;;23.71;58.21;99576.81;7314449;19;130810;-37
2022/09/11 12:14:19;;;;;;;;;;;;;;;23.70;58.86;99567.25;7310827;19;129138;-37
2022/09/11 12:16:44;;;;;;;;;;;;;;;23.67;57.93;99574.66;7314651;19;128901;-37
2022/09/11 12:19:15;;;;;;;;;;;;;;;23.65;58.17;99571.34;7309307;19;131391;-36
2022/09/11 12:21:46;;;;;;;;;;;;;;;23.66;58.29;99575.59;7313180;19;130451;-37
2022/09/11 12:24:13;;;;;;;;;;;;;;;23.68;58.51;99574.50;7312197;19;129203;-37
2022/09/11 12:26:39;;;;;;;;;;;;;;;23.59;57.98;99559.66;7314167;19;131305;-38
2022/09/11 12:29:11;;;;;;;;;;;;;;;23.63;57.95;99571.50;7311906;19;130708;-37
2022/09/11 12:31:48;;;;;;;;;;;;;;;23.62;58.68;99575.09;7313701;19;131110;-37
2022/09/11 12:34:17;;;;;;;;;;;;;;;23.53;58.67;99562.91;7312160;19;129499;-37
2022/09/11 12:36:54;;;;;;;;;;;;;;;23.63;58.79;99581.16;7313043;19;129084;-38
2022/09/11 12:39:31;;;;;;;;;;;;;;;23.62;59.11;99577.72;7312117;19;130924;-38
2022/09/11 12:42:16;;;;;;;;;;;;;;;23.54;58.35;99567.16;7310997;19;131577;-37